Terminal Aerodrome Forecast
Issued by NWS Wilmington, OH

Current Version | Previous Version | Graphics & Text | Print | Product List | Glossary On
Versions: 1 2 3 4 5 6 7 8 9 10 11 12 13 14 15 16 17 18 19 20 21 22 23 24 25 26 27 28
000
FTUS41 KILN 300538
TAFCVG
TAF
KCVG 300538Z 3006/3112 25005KT P6SM BKN250
     FM300900 32006KT 4SM BR SCT250
     FM301200 32007KT P6SM FEW250
     FM301600 31010G17KT P6SM SCT040
     FM302300 VRB04KT P6SM SKC=

USA.gov is the U.S. government's official web portal to all federal, state and local government web resources and services.